CheckWX is a tool to help pilots better visualize weather data.  It is not intended as a substitute for an official pre-flight weather briefing.

08:29:25 UTC

GEML METAR
Melilla Airport
Melilla, Spain
Current

29 mins ago

GEML 070800Z 05007KT 020V090 9999 -RA FEW012 BKN024 16/14 Q1022
Observed
Dec-7 @ 08:00 UTC
Wind
  • 050° at 7 KTS
Visibility
10,000+ meters
Flight Rules
MVFR
Conditions
Light Rain
Cloud Levels
  • Few at 1,200' AGL
  • Broken at 2,400' AGL
Temperature
16°C / 61°F
Dewpoint
14°C / 57°F
Humidity
88%
Altimeter
30.18" Hg
Pressure
1021.92 hPa
Previous

59 mins ago

GEML 070730Z 05007KT 360V100 9999 BKN011 BKN025 16/14 Q1021
Observed
Dec-7 @ 07:30 UTC
Wind
  • 050° at 7 KTS
Visibility
10,000+ meters
Flight Rules
MVFR
Cloud Levels
  • Broken at 1,100' AGL
  • Broken at 2,500' AGL
Temperature
16°C / 61°F
Dewpoint
14°C / 57°F
Humidity
88%
Altimeter
30.15" Hg
Pressure
1020.92 hPa
Previous

1 hour ago

GEML 070700Z 06007KT 010V100 9999 BKN011 16/14 Q1021
Observed
Dec-7 @ 07:00 UTC
Wind
  • 060° at 7 KTS
Visibility
10,000+ meters
Flight Rules
MVFR
Cloud Levels
  • Broken at 1,100' AGL
Temperature
16°C / 61°F
Dewpoint
14°C / 57°F
Humidity
88%
Altimeter
30.15" Hg
Pressure
1020.92 hPa